sensor_id;sensor_type;location;lat;lon;timestamp;P1;durP1;ratioP1;P2;durP2;ratioP2
63046;SDS011;62025;39.238;9.126;2024-02-26T00:00:03;6.07;;;3.05;;
63046;SDS011;62025;39.238;9.126;2024-02-26T00:02:35;5.85;;;3.08;;
63046;SDS011;62025;39.238;9.126;2024-02-26T00:05:06;7.30;;;3.17;;
63046;SDS011;62025;39.238;9.126;2024-02-26T00:07:33;7.13;;;3.10;;
63046;SDS011;62025;39.238;9.126;2024-02-26T00:09:59;8.85;;;3.00;;
63046;SDS011;62025;39.238;9.126;2024-02-26T00:12:25;5.13;;;2.67;;
63046;SDS011;62025;39.238;9.126;2024-02-26T00:14:52;4.18;;;2.47;;
63046;SDS011;62025;39.238;9.126;2024-02-26T00:17:18;6.38;;;2.55;;
63046;SDS011;62025;39.238;9.126;2024-02-26T00:19:44;5.57;;;2.40;;
63046;SDS011;62025;39.238;9.126;2024-02-26T00:22:10;6.15;;;2.08;;
63046;SDS011;62025;39.238;9.126;2024-02-26T00:24:36;6.10;;;2.00;;
63046;SDS011;62025;39.238;9.126;2024-02-26T00:27:02;4.15;;;2.10;;
63046;SDS011;62025;39.238;9.126;2024-02-26T00:29:28;4.38;;;1.83;;
63046;SDS011;62025;39.238;9.126;2024-02-26T00:31:54;4.72;;;2.00;;
63046;SDS011;62025;39.238;9.126;2024-02-26T00:34:20;3.75;;;1.83;;
63046;SDS011;62025;39.238;9.126;2024-02-26T00:36:46;3.00;;;1.73;;
63046;SDS011;62025;39.238;9.126;2024-02-26T00:39:12;5.75;;;1.90;;
63046;SDS011;62025;39.238;9.126;2024-02-26T00:41:38;5.57;;;2.05;;
63046;SDS011;62025;39.238;9.126;2024-02-26T00:44:08;4.22;;;1.65;;
63046;SDS011;62025;39.238;9.126;2024-02-26T00:46:33;5.22;;;1.65;;
63046;SDS011;62025;39.238;9.126;2024-02-26T00:48:59;6.22;;;1.88;;
63046;SDS011;62025;39.238;9.126;2024-02-26T00:51:26;3.80;;;1.60;;
63046;SDS011;62025;39.238;9.126;2024-02-26T00:53:53;6.07;;;1.80;;
63046;SDS011;62025;39.238;9.126;2024-02-26T00:56:21;4.28;;;1.48;;
63046;SDS011;62025;39.238;9.126;2024-02-26T00:58:47;5.60;;;1.55;;
63046;SDS011;62025;39.238;9.126;2024-02-26T01:01:13;5.47;;;1.75;;
63046;SDS011;62025;39.238;9.126;2024-02-26T01:03:39;5.53;;;1.85;;
63046;SDS011;62025;39.238;9.126;2024-02-26T01:06:05;5.88;;;1.50;;
63046;SDS011;62025;39.238;9.126;2024-02-26T01:08:31;4.28;;;1.48;;
63046;SDS011;62025;39.238;9.126;2024-02-26T01:10:57;2.55;;;1.27;;
63046;SDS011;62025;39.238;9.126;2024-02-26T01:13:22;3.63;;;1.33;;
63046;SDS011;62025;39.238;9.126;2024-02-26T01:15:48;5.20;;;1.48;;
63046;SDS011;62025;39.238;9.126;2024-02-26T01:18:14;5.72;;;1.38;;
63046;SDS011;62025;39.238;9.126;2024-02-26T01:20:40;3.58;;;1.27;;
63046;SDS011;62025;39.238;9.126;2024-02-26T01:23:06;2.78;;;1.33;;
63046;SDS011;62025;39.238;9.126;2024-02-26T01:25:32;2.47;;;1.23;;
63046;SDS011;62025;39.238;9.126;2024-02-26T01:27:58;3.90;;;1.33;;
63046;SDS011;62025;39.238;9.126;2024-02-26T01:30:24;5.38;;;1.50;;
63046;SDS011;62025;39.238;9.126;2024-02-26T01:32:50;4.40;;;1.48;;
63046;SDS011;62025;39.238;9.126;2024-02-26T01:35:16;5.50;;;1.20;;
63046;SDS011;62025;39.238;9.126;2024-02-26T01:37:42;2.75;;;1.23;;
63046;SDS011;62025;39.238;9.126;2024-02-26T01:40:08;1.83;;;1.30;;
63046;SDS011;62025;39.238;9.126;2024-02-26T01:42:35;6.25;;;1.40;;
63046;SDS011;62025;39.238;9.126;2024-02-26T01:45:04;4.65;;;1.40;;
63046;SDS011;62025;39.238;9.126;2024-02-26T01:47:32;3.43;;;1.40;;
63046;SDS011;62025;39.238;9.126;2024-02-26T01:49:58;4.07;;;1.42;;
63046;SDS011;62025;39.238;9.126;2024-02-26T01:52:24;4.72;;;2.22;;
63046;SDS011;62025;39.238;9.126;2024-02-26T01:54:50;3.10;;;1.40;;
63046;SDS011;62025;39.238;9.126;2024-02-26T01:57:16;3.63;;;1.27;;
63046;SDS011;62025;39.238;9.126;2024-02-26T01:59:43;5.00;;;1.30;;
63046;SDS011;62025;39.238;9.126;2024-02-26T02:02:09;3.65;;;1.60;;
63046;SDS011;62025;39.238;9.126;2024-02-26T02:04:36;8.00;;;1.33;;
63046;SDS011;62025;39.238;9.126;2024-02-26T02:07:04;3.88;;;1.30;;
63046;SDS011;62025;39.238;9.126;2024-02-26T02:09:30;3.92;;;1.27;;
63046;SDS011;62025;39.238;9.126;2024-02-26T02:11:57;4.47;;;1.20;;
63046;SDS011;62025;39.238;9.126;2024-02-26T02:14:24;4.30;;;1.15;;
63046;SDS011;62025;39.238;9.126;2024-02-26T02:16:50;3.10;;;1.10;;
63046;SDS011;62025;39.238;9.126;2024-02-26T02:19:16;5.22;;;1.38;;
63046;SDS011;62025;39.238;9.126;2024-02-26T02:21:42;4.90;;;1.20;;
63046;SDS011;62025;39.238;9.126;2024-02-26T02:24:08;8.13;;;1.17;;
63046;SDS011;62025;39.238;9.126;2024-02-26T02:26:34;4.13;;;1.35;;
63046;SDS011;62025;39.238;9.126;2024-02-26T02:29:00;3.05;;;0.90;;
63046;SDS011;62025;39.238;9.126;2024-02-26T02:31:26;4.47;;;1.10;;
63046;SDS011;62025;39.238;9.126;2024-02-26T02:33:52;2.88;;;1.17;;
63046;SDS011;62025;39.238;9.126;2024-02-26T02:36:18;4.47;;;1.40;;
63046;SDS011;62025;39.238;9.126;2024-02-26T02:38:51;3.28;;;1.10;;
63046;SDS011;62025;39.238;9.126;2024-02-26T02:41:17;4.63;;;1.13;;
63046;SDS011;62025;39.238;9.126;2024-02-26T02:43:44;6.00;;;1.10;;
63046;SDS011;62025;39.238;9.126;2024-02-26T02:46:10;6.50;;;1.50;;
63046;SDS011;62025;39.238;9.126;2024-02-26T02:48:38;5.25;;;1.38;;
63046;SDS011;62025;39.238;9.126;2024-02-26T02:51:06;3.03;;;1.10;;
63046;SDS011;62025;39.238;9.126;2024-02-26T02:53:34;4.43;;;1.10;;
63046;SDS011;62025;39.238;9.126;2024-02-26T02:56:00;5.78;;;1.65;;
63046;SDS011;62025;39.238;9.126;2024-02-26T02:58:25;4.32;;;1.20;;
63046;SDS011;62025;39.238;9.126;2024-02-26T03:00:51;6.28;;;1.38;;
63046;SDS011;62025;39.238;9.126;2024-02-26T03:03:20;5.05;;;1.20;;
63046;SDS011;62025;39.238;9.126;2024-02-26T03:05:46;5.22;;;1.48;;
63046;SDS011;62025;39.238;9.126;2024-02-26T03:08:12;4.15;;;1.00;;
63046;SDS011;62025;39.238;9.126;2024-02-26T03:10:38;4.00;;;0.90;;
63046;SDS011;62025;39.238;9.126;2024-02-26T03:13:04;4.07;;;1.10;;
63046;SDS011;62025;39.238;9.126;2024-02-26T03:15:30;6.60;;;1.25;;
63046;SDS011;62025;39.238;9.126;2024-02-26T03:17:56;5.93;;;1.55;;
63046;SDS011;62025;39.238;9.126;2024-02-26T03:20:22;6.43;;;1.30;;
63046;SDS011;62025;39.238;9.126;2024-02-26T03:22:48;7.50;;;1.35;;
63046;SDS011;62025;39.238;9.126;2024-02-26T03:25:14;4.75;;;1.20;;
63046;SDS011;62025;39.238;9.126;2024-02-26T03:27:39;5.78;;;1.38;;
63046;SDS011;62025;39.238;9.126;2024-02-26T03:30:06;4.88;;;1.30;;
63046;SDS011;62025;39.238;9.126;2024-02-26T03:32:32;4.13;;;1.67;;
63046;SDS011;62025;39.238;9.126;2024-02-26T03:34:58;5.68;;;1.27;;
63046;SDS011;62025;39.238;9.126;2024-02-26T03:37:25;4.07;;;1.23;;
63046;SDS011;62025;39.238;9.126;2024-02-26T03:39:51;4.45;;;1.40;;
63046;SDS011;62025;39.238;9.126;2024-02-26T03:42:17;3.55;;;1.40;;
63046;SDS011;62025;39.238;9.126;2024-02-26T03:44:42;4.13;;;1.60;;
63046;SDS011;62025;39.238;9.126;2024-02-26T03:47:09;5.40;;;1.30;;
63046;SDS011;62025;39.238;9.126;2024-02-26T03:49:35;4.90;;;1.20;;
63046;SDS011;62025;39.238;9.126;2024-02-26T03:52:00;5.32;;;1.48;;
63046;SDS011;62025;39.238;9.126;2024-02-26T03:54:26;4.40;;;1.40;;
63046;SDS011;62025;39.238;9.126;2024-02-26T03:56:52;4.18;;;1.40;;
63046;SDS011;62025;39.238;9.126;2024-02-26T03:59:18;5.25;;;1.40;;
63046;SDS011;62025;39.238;9.126;2024-02-26T04:01:45;5.78;;;1.35;;
63046;SDS011;62025;39.238;9.126;2024-02-26T04:04:14;4.93;;;1.40;;
63046;SDS011;62025;39.238;9.126;2024-02-26T04:06:44;5.38;;;1.13;;
63046;SDS011;62025;39.238;9.126;2024-02-26T04:09:11;5.57;;;1.40;;
63046;SDS011;62025;39.238;9.126;2024-02-26T04:11:39;3.92;;;1.13;;
63046;SDS011;62025;39.238;9.126;2024-02-26T04:14:05;7.85;;;1.17;;
63046;SDS011;62025;39.238;9.126;2024-02-26T04:16:34;4.87;;;1.40;;
63046;SDS011;62025;39.238;9.126;2024-02-26T04:19:03;5.72;;;1.25;;
63046;SDS011;62025;39.238;9.126;2024-02-26T04:21:28;5.90;;;1.27;;
63046;SDS011;62025;39.238;9.126;2024-02-26T04:23:54;9.73;;;1.67;;
63046;SDS011;62025;39.238;9.126;2024-02-26T04:26:21;10.77;;;1.80;;
63046;SDS011;62025;39.238;9.126;2024-02-26T04:28:47;4.35;;;1.30;;
63046;SDS011;62025;39.238;9.126;2024-02-26T04:31:13;8.35;;;1.30;;
63046;SDS011;62025;39.238;9.126;2024-02-26T04:33:38;8.82;;;1.60;;
63046;SDS011;62025;39.238;9.126;2024-02-26T04:36:04;5.38;;;1.50;;
63046;SDS011;62025;39.238;9.126;2024-02-26T04:38:30;5.20;;;1.58;;
63046;SDS011;62025;39.238;9.126;2024-02-26T04:40:56;5.32;;;1.17;;
63046;SDS011;62025;39.238;9.126;2024-02-26T04:43:22;5.97;;;1.33;;
63046;SDS011;62025;39.238;9.126;2024-02-26T04:45:48;7.00;;;1.60;;
63046;SDS011;62025;39.238;9.126;2024-02-26T04:48:14;7.20;;;1.60;;
63046;SDS011;62025;39.238;9.126;2024-02-26T04:50:40;5.47;;;1.20;;
63046;SDS011;62025;39.238;9.126;2024-02-26T04:53:06;7.85;;;1.55;;
63046;SDS011;62025;39.238;9.126;2024-02-26T04:55:33;4.85;;;1.33;;
63046;SDS011;62025;39.238;9.126;2024-02-26T04:57:59;7.25;;;1.60;;
63046;SDS011;62025;39.238;9.126;2024-02-26T05:00:25;7.03;;;1.35;;
63046;SDS011;62025;39.238;9.126;2024-02-26T05:02:51;4.80;;;1.70;;
63046;SDS011;62025;39.238;9.126;2024-02-26T05:05:17;4.80;;;1.50;;
63046;SDS011;62025;39.238;9.126;2024-02-26T05:07:43;6.05;;;1.45;;
63046;SDS011;62025;39.238;9.126;2024-02-26T05:10:10;8.18;;;1.55;;
63046;SDS011;62025;39.238;9.126;2024-02-26T05:12:36;6.18;;;1.77;;
63046;SDS011;62025;39.238;9.126;2024-02-26T05:15:02;8.73;;;1.90;;
63046;SDS011;62025;39.238;9.126;2024-02-26T05:17:29;9.30;;;2.28;;
63046;SDS011;62025;39.238;9.126;2024-02-26T05:19:55;8.88;;;2.15;;
63046;SDS011;62025;39.238;9.126;2024-02-26T05:22:21;7.20;;;1.42;;
63046;SDS011;62025;39.238;9.126;2024-02-26T05:24:47;7.78;;;1.90;;
63046;SDS011;62025;39.238;9.126;2024-02-26T05:27:13;6.60;;;1.83;;
63046;SDS011;62025;39.238;9.126;2024-02-26T05:29:39;6.57;;;1.70;;
63046;SDS011;62025;39.238;9.126;2024-02-26T05:32:05;8.65;;;1.90;;
63046;SDS011;62025;39.238;9.126;2024-02-26T05:34:31;8.80;;;1.95;;
63046;SDS011;62025;39.238;9.126;2024-02-26T05:36:58;12.48;;;2.50;;
63046;SDS011;62025;39.238;9.126;2024-02-26T05:39:24;12.65;;;2.53;;
63046;SDS011;62025;39.238;9.126;2024-02-26T05:41:50;14.07;;;2.67;;
63046;SDS011;62025;39.238;9.126;2024-02-26T05:44:16;9.82;;;2.10;;
63046;SDS011;62025;39.238;9.126;2024-02-26T05:46:43;12.27;;;2.53;;
63046;SDS011;62025;39.238;9.126;2024-02-26T05:49:09;9.43;;;2.70;;
63046;SDS011;62025;39.238;9.126;2024-02-26T05:51:34;9.27;;;2.00;;
63046;SDS011;62025;39.238;9.126;2024-02-26T05:54:00;9.38;;;3.22;;
63046;SDS011;62025;39.238;9.126;2024-02-26T05:56:26;9.30;;;2.72;;
63046;SDS011;62025;39.238;9.126;2024-02-26T05:58:52;10.77;;;2.10;;
63046;SDS011;62025;39.238;9.126;2024-02-26T06:01:19;9.02;;;2.30;;
63046;SDS011;62025;39.238;9.126;2024-02-26T06:03:45;14.68;;;2.60;;
63046;SDS011;62025;39.238;9.126;2024-02-26T06:06:11;10.50;;;2.40;;
63046;SDS011;62025;39.238;9.126;2024-02-26T06:08:39;9.73;;;2.08;;
63046;SDS011;62025;39.238;9.126;2024-02-26T06:11:05;9.30;;;2.40;;
63046;SDS011;62025;39.238;9.126;2024-02-26T06:13:33;11.70;;;2.80;;
63046;SDS011;62025;39.238;9.126;2024-02-26T06:15:59;10.23;;;2.45;;
63046;SDS011;62025;39.238;9.126;2024-02-26T06:18:25;14.38;;;2.67;;
63046;SDS011;62025;39.238;9.126;2024-02-26T06:20:51;13.50;;;2.78;;
63046;SDS011;62025;39.238;9.126;2024-02-26T06:23:17;10.20;;;2.60;;
63046;SDS011;62025;39.238;9.126;2024-02-26T06:25:43;13.23;;;3.10;;
63046;SDS011;62025;39.238;9.126;2024-02-26T06:28:09;15.07;;;3.22;;
63046;SDS011;62025;39.238;9.126;2024-02-26T06:30:35;12.98;;;3.30;;
63046;SDS011;62025;39.238;9.126;2024-02-26T06:33:01;14.07;;;3.00;;
63046;SDS011;62025;39.238;9.126;2024-02-26T06:35:28;11.05;;;2.85;;
63046;SDS011;62025;39.238;9.126;2024-02-26T06:37:54;15.88;;;3.53;;
63046;SDS011;62025;39.238;9.126;2024-02-26T06:40:20;15.48;;;4.35;;
63046;SDS011;62025;39.238;9.126;2024-02-26T06:42:46;15.75;;;4.18;;
63046;SDS011;62025;39.238;9.126;2024-02-26T06:45:12;14.40;;;4.30;;
63046;SDS011;62025;39.238;9.126;2024-02-26T06:47:38;18.60;;;4.50;;
63046;SDS011;62025;39.238;9.126;2024-02-26T06:50:04;22.35;;;5.38;;
63046;SDS011;62025;39.238;9.126;2024-02-26T06:52:30;20.20;;;4.38;;
63046;SDS011;62025;39.238;9.126;2024-02-26T06:54:56;15.20;;;4.22;;
63046;SDS011;62025;39.238;9.126;2024-02-26T06:57:22;18.08;;;3.85;;
63046;SDS011;62025;39.238;9.126;2024-02-26T06:59:49;13.57;;;3.80;;
63046;SDS011;62025;39.238;9.126;2024-02-26T07:02:14;17.23;;;4.07;;
63046;SDS011;62025;39.238;9.126;2024-02-26T07:04:44;16.63;;;4.20;;
63046;SDS011;62025;39.238;9.126;2024-02-26T07:07:10;17.90;;;4.28;;
63046;SDS011;62025;39.238;9.126;2024-02-26T07:09:36;22.00;;;4.18;;
63046;SDS011;62025;39.238;9.126;2024-02-26T07:12:02;17.95;;;4.40;;
63046;SDS011;62025;39.238;9.126;2024-02-26T07:14:28;16.90;;;4.55;;
63046;SDS011;62025;39.238;9.126;2024-02-26T07:16:55;17.73;;;3.88;;
63046;SDS011;62025;39.238;9.126;2024-02-26T07:19:21;14.82;;;4.20;;
63046;SDS011;62025;39.238;9.126;2024-02-26T07:21:47;16.13;;;4.28;;
63046;SDS011;62025;39.238;9.126;2024-02-26T07:24:13;16.77;;;4.30;;
63046;SDS011;62025;39.238;9.126;2024-02-26T07:26:39;21.45;;;4.20;;
63046;SDS011;62025;39.238;9.126;2024-02-26T07:29:05;19.10;;;4.53;;
63046;SDS011;62025;39.238;9.126;2024-02-26T07:31:32;19.33;;;4.25;;
63046;SDS011;62025;39.238;9.126;2024-02-26T07:33:58;19.50;;;4.63;;
63046;SDS011;62025;39.238;9.126;2024-02-26T07:36:24;16.30;;;3.97;;
63046;SDS011;62025;39.238;9.126;2024-02-26T07:38:50;14.07;;;3.42;;
63046;SDS011;62025;39.238;9.126;2024-02-26T07:41:19;17.88;;;4.00;;
63046;SDS011;62025;39.238;9.126;2024-02-26T07:43:46;15.52;;;4.07;;
63046;SDS011;62025;39.238;9.126;2024-02-26T07:46:12;19.88;;;4.05;;
63046;SDS011;62025;39.238;9.126;2024-02-26T07:48:38;17.08;;;3.40;;
63046;SDS011;62025;39.238;9.126;2024-02-26T07:51:04;14.98;;;4.00;;
63046;SDS011;62025;39.238;9.126;2024-02-26T07:53:30;19.30;;;4.32;;
63046;SDS011;62025;39.238;9.126;2024-02-26T07:55:56;14.60;;;4.25;;
63046;SDS011;62025;39.238;9.126;2024-02-26T07:58:23;13.48;;;3.20;;
63046;SDS011;62025;39.238;9.126;2024-02-26T08:00:49;13.05;;;4.53;;
63046;SDS011;62025;39.238;9.126;2024-02-26T08:03:15;13.23;;;3.60;;
63046;SDS011;62025;39.238;9.126;2024-02-26T08:05:42;9.77;;;3.30;;
63046;SDS011;62025;39.238;9.126;2024-02-26T08:08:08;12.68;;;3.65;;
63046;SDS011;62025;39.238;9.126;2024-02-26T08:10:34;13.25;;;3.38;;
63046;SDS011;62025;39.238;9.126;2024-02-26T08:13:00;22.35;;;4.38;;
63046;SDS011;62025;39.238;9.126;2024-02-26T08:15:32;13.60;;;3.17;;
63046;SDS011;62025;39.238;9.126;2024-02-26T08:18:00;16.35;;;4.22;;
63046;SDS011;62025;39.238;9.126;2024-02-26T08:20:30;11.38;;;2.40;;
63046;SDS011;62025;39.238;9.126;2024-02-26T08:22:56;13.55;;;2.53;;
63046;SDS011;62025;39.238;9.126;2024-02-26T08:25:23;8.80;;;2.45;;
63046;SDS011;62025;39.238;9.126;2024-02-26T08:27:49;13.48;;;3.05;;
63046;SDS011;62025;39.238;9.126;2024-02-26T08:30:16;11.73;;;2.90;;
63046;SDS011;62025;39.238;9.126;2024-02-26T08:32:44;14.80;;;3.10;;
63046;SDS011;62025;39.238;9.126;2024-02-26T08:35:12;13.52;;;2.55;;
63046;SDS011;62025;39.238;9.126;2024-02-26T08:37:38;11.63;;;2.47;;
63046;SDS011;62025;39.238;9.126;2024-02-26T08:40:05;12.55;;;2.42;;
63046;SDS011;62025;39.238;9.126;2024-02-26T08:42:32;11.73;;;2.20;;
63046;SDS011;62025;39.238;9.126;2024-02-26T08:44:58;14.95;;;2.60;;
63046;SDS011;62025;39.238;9.126;2024-02-26T08:47:27;15.18;;;2.72;;
63046;SDS011;62025;39.238;9.126;2024-02-26T08:49:53;9.32;;;2.25;;
63046;SDS011;62025;39.238;9.126;2024-02-26T08:52:20;12.57;;;2.95;;
63046;SDS011;62025;39.238;9.126;2024-02-26T08:54:47;8.25;;;2.13;;
63046;SDS011;62025;39.238;9.126;2024-02-26T08:57:13;10.75;;;2.10;;
63046;SDS011;62025;39.238;9.126;2024-02-26T08:59:39;15.35;;;2.03;;
63046;SDS011;62025;39.238;9.126;2024-02-26T09:02:05;10.55;;;1.90;;
63046;SDS011;62025;39.238;9.126;2024-02-26T09:04:34;11.82;;;2.50;;
63046;SDS011;62025;39.238;9.126;2024-02-26T09:07:01;12.02;;;2.67;;
63046;SDS011;62025;39.238;9.126;2024-02-26T09:09:27;8.85;;;1.98;;
63046;SDS011;62025;39.238;9.126;2024-02-26T09:11:53;12.70;;;2.28;;
63046;SDS011;62025;39.238;9.126;2024-02-26T09:14:20;14.27;;;2.30;;
63046;SDS011;62025;39.238;9.126;2024-02-26T09:16:47;14.57;;;2.35;;
63046;SDS011;62025;39.238;9.126;2024-02-26T09:19:16;11.63;;;2.35;;
63046;SDS011;62025;39.238;9.126;2024-02-26T09:21:43;12.27;;;2.10;;
63046;SDS011;62025;39.238;9.126;2024-02-26T09:24:10;8.00;;;1.92;;
63046;SDS011;62025;39.238;9.126;2024-02-26T09:26:40;13.07;;;2.90;;
63046;SDS011;62025;39.238;9.126;2024-02-26T09:29:06;17.15;;;2.60;;
63046;SDS011;62025;39.238;9.126;2024-02-26T09:34:00;14.23;;;2.30;;
63046;SDS011;62025;39.238;9.126;2024-02-26T09:36:26;8.40;;;2.20;;
63046;SDS011;62025;39.238;9.126;2024-02-26T09:38:52;9.10;;;2.60;;
63046;SDS011;62025;39.238;9.126;2024-02-26T09:41:19;13.55;;;2.13;;
63046;SDS011;62025;39.238;9.126;2024-02-26T09:43:46;17.80;;;2.50;;
63046;SDS011;62025;39.238;9.126;2024-02-26T09:46:17;9.75;;;2.15;;
63046;SDS011;62025;39.238;9.126;2024-02-26T09:48:45;12.18;;;2.30;;
63046;SDS011;62025;39.238;9.126;2024-02-26T09:51:12;16.65;;;2.40;;
63046;SDS011;62025;39.238;9.126;2024-02-26T09:53:40;12.82;;;2.10;;
63046;SDS011;62025;39.238;9.126;2024-02-26T09:56:11;12.55;;;2.30;;
63046;SDS011;62025;39.238;9.126;2024-02-26T09:58:40;7.75;;;2.22;;
63046;SDS011;62025;39.238;9.126;2024-02-26T10:01:10;13.32;;;2.20;;
63046;SDS011;62025;39.238;9.126;2024-02-26T10:03:39;12.95;;;2.28;;
63046;SDS011;62025;39.238;9.126;2024-02-26T10:06:10;11.10;;;2.40;;
63046;SDS011;62025;39.238;9.126;2024-02-26T10:08:37;10.70;;;2.10;;
63046;SDS011;62025;39.238;9.126;2024-02-26T10:11:04;9.27;;;2.03;;
63046;SDS011;62025;39.238;9.126;2024-02-26T10:13:32;12.55;;;3.15;;
63046;SDS011;62025;39.238;9.126;2024-02-26T10:15:58;10.85;;;1.60;;
63046;SDS011;62025;39.238;9.126;2024-02-26T10:18:24;12.30;;;2.88;;
63046;SDS011;62025;39.238;9.126;2024-02-26T10:21:00;11.13;;;2.58;;
63046;SDS011;62025;39.238;9.126;2024-02-26T10:23:27;10.45;;;2.20;;
63046;SDS011;62025;39.238;9.126;2024-02-26T10:25:55;11.85;;;2.28;;
63046;SDS011;62025;39.238;9.126;2024-02-26T10:28:22;16.02;;;2.50;;
63046;SDS011;62025;39.238;9.126;2024-02-26T10:30:48;11.13;;;2.00;;
63046;SDS011;62025;39.238;9.126;2024-02-26T10:33:16;9.48;;;2.00;;
63046;SDS011;62025;39.238;9.126;2024-02-26T10:35:46;15.77;;;2.67;;
63046;SDS011;62025;39.238;9.126;2024-02-26T10:38:12;13.65;;;2.50;;
63046;SDS011;62025;39.238;9.126;2024-02-26T10:40:42;14.63;;;2.38;;
63046;SDS011;62025;39.238;9.126;2024-02-26T10:43:09;17.23;;;3.28;;
63046;SDS011;62025;39.238;9.126;2024-02-26T10:45:35;10.63;;;1.90;;
63046;SDS011;62025;39.238;9.126;2024-02-26T10:48:02;9.32;;;1.88;;
63046;SDS011;62025;39.238;9.126;2024-02-26T10:50:28;14.25;;;2.60;;
63046;SDS011;62025;39.238;9.126;2024-02-26T10:52:54;17.88;;;2.40;;
63046;SDS011;62025;39.238;9.126;2024-02-26T10:55:21;14.05;;;2.10;;
63046;SDS011;62025;39.238;9.126;2024-02-26T10:57:50;19.97;;;3.03;;
63046;SDS011;62025;39.238;9.126;2024-02-26T11:00:18;12.85;;;2.00;;
63046;SDS011;62025;39.238;9.126;2024-02-26T11:02:47;15.40;;;2.30;;
63046;SDS011;62025;39.238;9.126;2024-02-26T11:05:14;10.98;;;1.85;;
63046;SDS011;62025;39.238;9.126;2024-02-26T11:07:41;14.77;;;2.20;;
63046;SDS011;62025;39.238;9.126;2024-02-26T11:10:07;13.70;;;2.20;;
63046;SDS011;62025;39.238;9.126;2024-02-26T11:12:36;11.15;;;2.30;;
63046;SDS011;62025;39.238;9.126;2024-02-26T11:15:04;17.33;;;2.30;;
63046;SDS011;62025;39.238;9.126;2024-02-26T11:17:31;14.90;;;2.13;;
63046;SDS011;62025;39.238;9.126;2024-02-26T11:19:58;13.57;;;2.83;;
63046;SDS011;62025;39.238;9.126;2024-02-26T11:22:28;11.65;;;2.65;;
63046;SDS011;62025;39.238;9.126;2024-02-26T11:24:57;14.15;;;2.38;;
63046;SDS011;62025;39.238;9.126;2024-02-26T11:28:00;15.82;;;2.53;;
63046;SDS011;62025;39.238;9.126;2024-02-26T11:30:23;13.05;;;2.58;;
63046;SDS011;62025;39.238;9.126;2024-02-26T11:32:51;18.65;;;2.40;;
63046;SDS011;62025;39.238;9.126;2024-02-26T11:35:18;13.35;;;2.78;;
63046;SDS011;62025;39.238;9.126;2024-02-26T11:37:54;20.80;;;3.20;;
63046;SDS011;62025;39.238;9.126;2024-02-26T11:40:24;16.23;;;3.25;;
63046;SDS011;62025;39.238;9.126;2024-02-26T11:42:51;12.35;;;2.72;;
63046;SDS011;62025;39.238;9.126;2024-02-26T11:48:03;12.32;;;2.83;;
63046;SDS011;62025;39.238;9.126;2024-02-26T11:50:34;8.05;;;2.00;;
63046;SDS011;62025;39.238;9.126;2024-02-26T11:55:46;15.15;;;2.20;;
63046;SDS011;62025;39.238;9.126;2024-02-26T11:58:13;14.45;;;2.88;;
63046;SDS011;62025;39.238;9.126;2024-02-26T12:00:42;16.58;;;2.75;;
63046;SDS011;62025;39.238;9.126;2024-02-26T12:03:08;14.55;;;2.33;;
63046;SDS011;62025;39.238;9.126;2024-02-26T12:05:36;13.68;;;2.88;;
63046;SDS011;62025;39.238;9.126;2024-02-26T12:08:04;10.63;;;2.35;;
63046;SDS011;62025;39.238;9.126;2024-02-26T12:13:07;19.25;;;2.72;;
63046;SDS011;62025;39.238;9.126;2024-02-26T12:15:43;11.82;;;2.78;;
63046;SDS011;62025;39.238;9.126;2024-02-26T12:18:18;16.65;;;3.55;;
63046;SDS011;62025;39.238;9.126;2024-02-26T12:20:45;11.13;;;2.63;;
63046;SDS011;62025;39.238;9.126;2024-02-26T12:23:14;15.48;;;2.88;;
63046;SDS011;62025;39.238;9.126;2024-02-26T12:25:44;15.32;;;2.80;;
63046;SDS011;62025;39.238;9.126;2024-02-26T12:28:13;16.48;;;2.92;;
63046;SDS011;62025;39.238;9.126;2024-02-26T12:30:40;14.18;;;2.67;;
63046;SDS011;62025;39.238;9.126;2024-02-26T12:33:06;14.95;;;2.40;;
63046;SDS011;62025;39.238;9.126;2024-02-26T12:35:33;12.73;;;2.67;;
63046;SDS011;62025;39.238;9.126;2024-02-26T12:38:01;15.70;;;3.30;;
63046;SDS011;62025;39.238;9.126;2024-02-26T12:40:29;9.43;;;2.20;;
63046;SDS011;62025;39.238;9.126;2024-02-26T12:42:55;9.75;;;1.92;;
63046;SDS011;62025;39.238;9.126;2024-02-26T12:45:21;11.40;;;2.50;;
63046;SDS011;62025;39.238;9.126;2024-02-26T12:47:47;16.25;;;2.63;;
63046;SDS011;62025;39.238;9.126;2024-02-26T12:50:16;14.63;;;2.20;;
63046;SDS011;62025;39.238;9.126;2024-02-26T12:52:46;19.13;;;2.38;;
63046;SDS011;62025;39.238;9.126;2024-02-26T12:55:15;14.93;;;2.10;;
63046;SDS011;62025;39.238;9.126;2024-02-26T12:57:45;10.90;;;2.30;;
63046;SDS011;62025;39.238;9.126;2024-02-26T13:00:15;11.25;;;2.25;;
63046;SDS011;62025;39.238;9.126;2024-02-26T13:02:44;13.48;;;3.22;;
63046;SDS011;62025;39.238;9.126;2024-02-26T13:05:12;11.05;;;1.83;;
63046;SDS011;62025;39.238;9.126;2024-02-26T13:07:45;9.55;;;2.00;;
63046;SDS011;62025;39.238;9.126;2024-02-26T13:10:16;15.85;;;2.70;;
63046;SDS011;62025;39.238;9.126;2024-02-26T13:12:47;9.30;;;1.77;;
63046;SDS011;62025;39.238;9.126;2024-02-26T13:15:21;8.45;;;1.70;;
63046;SDS011;62025;39.238;9.126;2024-02-26T13:17:48;11.13;;;2.05;;
63046;SDS011;62025;39.238;9.126;2024-02-26T13:20:27;13.27;;;1.80;;
63046;SDS011;62025;39.238;9.126;2024-02-26T13:23:01;8.90;;;2.28;;
63046;SDS011;62025;39.238;9.126;2024-02-26T13:25:30;8.38;;;1.63;;
63046;SDS011;62025;39.238;9.126;2024-02-26T13:28:09;12.75;;;2.42;;
63046;SDS011;62025;39.238;9.126;2024-02-26T13:30:49;11.27;;;2.08;;
63046;SDS011;62025;39.238;9.126;2024-02-26T13:33:25;15.60;;;2.53;;
63046;SDS011;62025;39.238;9.126;2024-02-26T13:35:58;13.48;;;2.55;;
63046;SDS011;62025;39.238;9.126;2024-02-26T13:38:25;12.88;;;2.75;;
63046;SDS011;62025;39.238;9.126;2024-02-26T13:40:53;15.90;;;2.70;;
63046;SDS011;62025;39.238;9.126;2024-02-26T13:43:21;18.45;;;2.92;;
63046;SDS011;62025;39.238;9.126;2024-02-26T13:45:47;13.00;;;2.72;;
63046;SDS011;62025;39.238;9.126;2024-02-26T13:48:13;11.98;;;2.25;;
63046;SDS011;62025;39.238;9.126;2024-02-26T13:50:43;9.90;;;2.55;;
63046;SDS011;62025;39.238;9.126;2024-02-26T13:53:10;18.45;;;2.30;;
63046;SDS011;62025;39.238;9.126;2024-02-26T13:55:37;9.32;;;2.75;;
63046;SDS011;62025;39.238;9.126;2024-02-26T13:58:05;13.25;;;2.45;;
63046;SDS011;62025;39.238;9.126;2024-02-26T14:00:32;10.55;;;3.22;;
63046;SDS011;62025;39.238;9.126;2024-02-26T14:02:59;15.90;;;3.15;;
63046;SDS011;62025;39.238;9.126;2024-02-26T14:05:26;13.90;;;2.88;;
63046;SDS011;62025;39.238;9.126;2024-02-26T14:07:52;10.93;;;1.95;;
63046;SDS011;62025;39.238;9.126;2024-02-26T14:10:19;11.10;;;2.30;;
63046;SDS011;62025;39.238;9.126;2024-02-26T14:12:45;13.25;;;2.78;;
63046;SDS011;62025;39.238;9.126;2024-02-26T14:15:11;15.65;;;2.65;;
63046;SDS011;62025;39.238;9.126;2024-02-26T14:17:37;10.25;;;2.20;;
63046;SDS011;62025;39.238;9.126;2024-02-26T14:20:03;10.80;;;2.80;;
63046;SDS011;62025;39.238;9.126;2024-02-26T14:22:30;10.10;;;2.22;;
63046;SDS011;62025;39.238;9.126;2024-02-26T14:24:56;11.50;;;2.30;;
63046;SDS011;62025;39.238;9.126;2024-02-26T14:27:23;12.25;;;2.47;;
63046;SDS011;62025;39.238;9.126;2024-02-26T14:29:49;12.02;;;2.65;;
63046;SDS011;62025;39.238;9.126;2024-02-26T14:32:15;16.25;;;2.20;;
63046;SDS011;62025;39.238;9.126;2024-02-26T14:34:42;11.00;;;2.58;;
63046;SDS011;62025;39.238;9.126;2024-02-26T14:37:08;13.93;;;2.30;;
63046;SDS011;62025;39.238;9.126;2024-02-26T14:39:34;13.13;;;2.38;;
63046;SDS011;62025;39.238;9.126;2024-02-26T14:42:02;10.77;;;2.43;;
63046;SDS011;62025;39.238;9.126;2024-02-26T14:44:29;11.43;;;2.65;;
63046;SDS011;62025;39.238;9.126;2024-02-26T14:46:54;14.18;;;2.47;;
63046;SDS011;62025;39.238;9.126;2024-02-26T14:49:21;15.18;;;2.20;;